Latest Coastal Weather Observations for Hillarys Point Boat Harbour

IDW60701

Issued at 1:05 pm WST Thursday 28 August 2014 (issued every 10 minutes, with the page automatically refreshed every 10 minutes)

About coastal observations | Map of coastal stations | Coastal observations for WA | Marine services | Other Formats
Station Details ID: 009265 Name: HILLARYS BOAT HARBOUR NTC AWS Lat: -31.83 Lon: 115.74 Height: 0.0 m
Data from the previous 72 hours. | See also: Recent months for locations in Western Australia
Date/Time
WST
Temp

°C
Wind Pressure Rain
since 9am
mm
Weather Cloud Vis
km
Sea
Height
m
Swell
Dir
 
Speed
knots
Gust
knots
hPa Trend Height
m
Period
s
Dir
28/01:00pm 20.7 NNW 6 11 1015.0 - - - - - - - - -
28/12:30pm 20.6 NNW 5 10 1015.3 - - - - - - - - -
28/12:00pm 20.3 NNW 6 10 1015.6 - - - - - - - - -
28/11:30am 20.1 NNW 7 11 1015.6 - - - - - - - - -
28/11:00am 20.1 N 7 14 1015.8 - - - - - - - - -
28/10:30am 19.4 N 8 12 1015.9 - - - - - - - - -
28/10:00am 18.8 N 6 9 1016.2 - - - - - - - - -
28/09:30am 17.8 N 6 10 1016.3 - - - - - - - - -
28/09:00am 17.0 NNE 5 10 1016.4 - - - - - - - - -
28/08:30am 16.2 NNE 6 10 1016.3 - - - - - - - - -
28/08:00am 15.8 NNE 8 12 1016.2 - - - - - - - - -
28/07:30am 15.3 NNE 7 12 1016.0 - - - - - - - - -
28/07:00am 15.2 NNE 7 11 1015.8 - - - - - - - - -
28/06:30am 14.8 NNE 7 11 1015.7 - - - - - - - - -
28/06:00am 14.5 NNE 8 13 1015.4 - - - - - - - - -
28/05:30am 14.5 NNE 7 12 1015.5 - - - - - - - - -
28/05:00am 14.5 NNE 7 10 1015.5 - - - - - - - - -
28/04:30am 14.7 NNE 6 9 1015.5 - - - - - - - - -
28/04:00am 14.9 NE 5 9 1015.4 - - - - - - - - -
28/03:30am 14.8 NNE 5 8 1015.6 - - - - - - - - -
28/03:00am 15.2 NE 4 9 1015.6 - - - - - - - - -
28/02:30am 14.3 ENE 4 7 1015.9 - - - - - - - - -
28/02:00am 14.4 ENE 4 7 1016.3 - - - - - - - - -
28/01:30am 15.2 ENE 3 5 1016.4 - - - - - - - - -
28/01:00am 14.7 NE 3 6 1016.8 - - - - - - - - -
28/12:30am 14.9 NE 4 6 1016.9 - - - - - - - - -
28/12:00am 14.6 NE 4 7 1017.3 - - - - - - - - -
 
Date/Time
WST
Temp

°C
Wind Pressure Rain
since 9am
mm
Weather Cloud Vis
km
Sea
Height
m
Swell
Dir
 
Speed
knots
Gust
knots
hPa Trend Height
m
Period
s
Dir
27/11:30pm 14.8 NE 3 7 1017.6 - - - - - - - - -
27/11:00pm 14.9 ENE 4 7 1018.2 - - - - - - - - -
27/10:30pm 15.4 ENE 4 6 1018.7 - - - - - - - - -
27/10:00pm 15.5 NE 3 5 1018.8 - - - - - - - - -
27/09:30pm 16.0 NE 3 6 1018.8 - - - - - - - - -
27/09:00pm 16.4 ENE 5 7 1018.8 - - - - - - - - -
27/08:30pm 16.5 ENE 3 5 1019.3 - - - - - - - - -
27/08:00pm 17.1 ENE 2 4 1019.4 - - - - - - - - -
27/07:30pm 17.4 ENE 2 4 1019.3 - - - - - - - - -
27/07:00pm 17.8 CALM 0 1 1019.3 - - - - - - - - -
27/06:30pm 18.1 SW 3 6 1019.6 - - - - - - - - -
27/06:00pm 18.2 SW 6 8 1019.4 - - - - - - - - -
27/05:30pm 18.2 WSW 8 11 1019.4 - - - - - - - - -
27/05:00pm 18.6 WSW 8 12 1018.9 - - - - - - - - -
27/04:30pm 18.7 WSW 8 11 1018.9 - - - - - - - - -
27/04:00pm 18.6 WSW 7 12 1019.0 - - - - - - - - -
27/03:30pm 18.8 W 5 9 1019.1 - - - - - - - - -
27/03:00pm 18.9 W 5 8 1018.9 - - - - - - - - -
27/02:30pm 18.7 W 4 7 1018.6 - - - - - - - - -
27/02:00pm 18.6 W 5 9 1018.6 - - - - - - - - -
27/01:30pm 17.9 WNW 3 4 1018.6 - - - - - - - - -
27/01:00pm 18.2 WNW 2 3 1019.1 - - - - - - - - -
27/12:30pm 17.7 WNW 3 4 1019.7 - - - - - - - - -
27/12:00pm 17.5 WNW 3 4 1020.2 - - - - - - - - -
27/11:30am 17.2 W 3 5 1020.5 - - - - - - - - -
27/11:00am 17.4 NW 4 6 1020.6 - - - - - - - - -
27/10:30am 17.4 NNW 3 5 1020.8 - - - - - - - - -
27/10:00am 16.9 NNE 3 6 1021.2 - - - - - - - - -
27/09:30am 15.9 ENE 5 9 1021.3 - - - - - - - - -
27/09:00am 15.1 ENE 5 8 1021.3 - - - - - - - - -
27/08:30am 14.5 ENE 5 8 1021.3 - - - - - - - - -
27/08:00am 13.5 ENE 4 7 1021.3 - - - - - - - - -
27/07:30am 13.2 ENE 3 5 1021.2 - - - - - - - - -
27/07:00am 13.0 ENE 4 6 1020.8 - - - - - - - - -
27/06:30am 12.9 ENE 3 6 1020.5 - - - - - - - - -
27/06:00am 13.4 E 2 5 1020.2 - - - - - - - - -
27/05:30am 13.5 E 2 3 1020.3 - - - - - - - - -
27/05:00am 13.6 E 2 4 1020.2 - - - - - - - - -
27/04:30am 14.0 ENE 2 4 1020.2 - - - - - - - - -
27/04:00am 14.2 E 2 3 1020.2 - - - - - - - - -
27/03:30am 14.0 NE 1 2 1020.5 - - - - - - - - -
27/03:00am 13.7 E 2 3 1020.7 - - - - - - - - -
27/02:30am 14.6 SSE 3 6 1020.7 - - - - - - - - -
27/02:00am 14.5 SSE 2 4 1020.9 - - - - - - - - -
27/01:30am 14.4 SSE 1 4 1021.4 - - - - - - - - -
27/01:00am 14.1 SE 1 6 1021.7 - - - - - - - - -
27/12:30am 14.1 SSE 1 5 1021.9 - - - - - - - - -
27/12:00am 14.4 SE 2 4 1022.0 - - - - - - - - -
 
Date/Time
WST
Temp

°C
Wind Pressure Rain
since 9am
mm
Weather Cloud Vis
km
Sea
Height
m
Swell
Dir
 
Speed
knots
Gust
knots
hPa Trend Height
m
Period
s
Dir
26/11:30pm 14.6 S 3 7 1022.2 - - - - - - - - -
26/11:00pm 14.7 S 2 6 1022.2 - - - - - - - - -
26/10:30pm 15.1 SSE 3 6 1022.4 - - - - - - - - -
26/10:00pm 15.4 SE 2 6 1022.7 - - - - - - - - -
26/09:30pm 16.0 SSE 4 8 1022.9 - - - - - - - - -
26/09:00pm 16.7 S 4 8 1022.8 - - - - - - - - -
26/08:30pm 16.9 SSW 2 7 1022.9 - - - - - - - - -
26/08:00pm 17.0 SSW 3 7 1022.9 - - - - - - - - -
26/07:30pm 17.1 S 3 8 1022.8 - - - - - - - - -
26/07:00pm 17.2 S 3 6 1022.5 - - - - - - - - -
26/06:30pm 17.3 S 3 6 1022.2 - - - - - - - - -
26/06:00pm 17.4 SSW 3 8 1022.0 - - - - - - - - -
26/05:30pm 17.7 SSW 3 8 1021.9 - - - - - - - - -
26/05:00pm 17.7 SSW 5 11 1021.8 - - - - - - - - -
26/04:30pm 17.8 SSW 5 10 1021.8 - - - - - - - - -
26/04:00pm 17.9 SSW 5 9 1021.6 - - - - - - - - -
26/03:30pm 18.0 SSW 5 9 1021.6 - - - - - - - - -
26/03:00pm 17.8 SSW 6 10 1021.8 - - - - - - - - -
26/02:30pm 17.7 SSW 6 12 1021.7 - - - - - - - - -
26/02:00pm 17.5 SSW 5 11 1021.8 - - - - - - - - -
26/01:30pm 17.5 SSW 5 11 1022.1 - - - - - - - - -
26/01:00pm 18.2 S 3 7 1022.3 - - - - - - - - -
26/12:30pm 17.8 SSW 4 9 1022.7 - - - - - - - - -
26/12:00pm 17.7 SSW 5 10 1023.1 - - - - - - - - -
26/11:30am 17.6 S 4 8 1023.2 - - - - - - - - -
26/11:00am 17.3 SSW 4 11 1023.2 - - - - - - - - -
26/10:30am 16.9 S 4 11 1023.2 - - - - - - - - -
26/10:00am 16.5 S 5 11 1023.1 - - - - - - - - -
26/09:30am 16.4 SSW 6 16 1023.0 - - - - - - - - -
26/09:00am 16.8 S 5 12 1022.8 - - - - - - - - -
26/08:30am 17.0 SSW 8 15 1022.3 - - - - - - - - -
26/08:00am 17.4 SW 11 16 1022.1 - - - - - - - - -
26/07:30am 17.8 WSW 12 16 1021.7 - - - - - - - - -
26/07:00am 18.0 WSW 11 15 1021.5 - - - - - - - - -
26/06:30am 18.2 WSW 10 13 1020.9 - - - - - - - - -
26/06:00am 18.4 SW 11 15 1020.7 - - - - - - - - -
26/05:30am 18.5 WSW 13 17 1020.5 - - - - - - - - -
26/05:00am 18.6 WSW 15 20 1020.3 - - - - - - - - -
26/04:30am 19.6 W 11 18 1019.8 - - - - - - - - -
26/04:00am 19.6 W 12 17 1019.4 - - - - - - - - -
26/03:30am 19.8 WNW 11 18 1019.1 - - - - - - - - -
26/03:00am 19.1 NNW 4 10 1019.3 - - - - - - - - -
26/02:30am 17.2 N 3 6 1019.3 - - - - - - - - -
26/02:00am 17.4 N 5 7 1019.3 - - - - - - - - -
26/01:30am 17.9 N 5 8 1019.4 - - - - - - - - -
26/01:00am 18.4 N 6 9 1019.4 - - - - - - - - -
26/12:30am 18.0 N 6 9 1019.5 - - - - - - - - -
26/12:00am 18.6 N 6 10 1019.8 - - - - - - - - -
 
Date/Time
WST
Temp

°C
Wind Pressure Rain
since 9am
mm
Weather Cloud Vis
km
Sea
Height
m
Swell
Dir
 
Speed
knots
Gust
knots
hPa Trend Height
m
Period
s
Dir
25/11:30pm 18.1 N 5 7 1020.3 - - - - - - - - -
25/11:00pm 17.6 NNE 4 7 1020.5 - - - - - - - - -
25/10:30pm 17.6 NNE 4 6 1020.6 - - - - - - - - -
25/10:00pm 17.8 NNE 4 6 1020.6 - - - - - - - - -
25/09:30pm 18.3 N 4 7 1020.8 - - - - - - - - -
25/09:00pm 18.4 N 4 6 1021.0 - - - - - - - - -
25/08:30pm 18.4 N 3 6 1020.9 - - - - - - - - -
25/08:00pm 18.7 N 3 5 1020.7 - - - - - - - - -
25/07:30pm 18.8 N 4 6 1020.4 - - - - - - - - -
25/07:00pm 19.1 N 4 6 1020.1 - - - - - - - - -
25/06:30pm 19.3 N 4 7 1019.8 - - - - - - - - -
25/06:00pm 19.4 N 5 7 1019.8 - - - - - - - - -
25/05:30pm 19.9 N 5 8 1019.8 - - - - - - - - -
25/05:00pm 20.4 N 6 9 1019.6 - - - - - - - - -
25/04:30pm 20.4 N 6 10 1019.6 - - - - - - - - -
25/04:00pm 20.3 NNW 4 8 1019.6 - - - - - - - - -
25/03:30pm 20.9 NNW 5 9 1019.4 - - - - - - - - -
25/03:00pm 20.3 NNW 5 8 1019.7 - - - - - - - - -
25/02:30pm 20.5 NW 5 10 1020.0 - - - - - - - - -
25/02:00pm 20.5 NW 6 10 1020.1 - - - - - - - - -
25/01:30pm 20.4 NW 5 10 1020.2 - - - - - - - - -

Other Formats:

Comma delimited format used in spreadsheet applications
http://www.bom.gov.au/fwo/IDW60701/IDW60701.95605.axf

JavaScript Object Notation format (JSON) in row-major order
http://www.bom.gov.au/fwo/IDW60701/IDW60701.95605.json